ENGLEBRIGHT (USACE) (ENG)

Elevation: 551' · YUBA R basin · Operator: US Army Corps of Engineers

Provisional data, subject to change.
Query executed Thursday at 18:20:05   clock

Select a sensor type for a plot of data.
Note: Reservoir Flows are daily averages.

Earlier

Date RES ELE    STORAGE    RES CHG    OUTFLOW    INFLOW    PPT INC   
 FEET   AF   AF   CFS   CFS   INCHES  
08/04/2015 521.78 65805 596 -- 1236 0.00
08/05/2015 523.41 67082 1277 -- 1533 0.00
08/06/2015 525.18 68490 1408 -- 1586 0.00
08/07/2015 524.06 67597 -893 -- 412 0.00
08/08/2015 522.97 66736 -861 -- 316 0.00
08/09/2015 521.95 65938 -798 -- 463 0.00
08/10/2015 522.03 66000 62 -- 1744 0.00
08/11/2015 522.19 66125 125 -- 1744 0.00
08/12/2015 521.73 65767 -358 -- 1494 0.00
08/13/2015 522.06 66023 256 -- 1758 0.00
08/14/2015 522.57 66422 399 -- 987 0.00
08/15/2015 522.49 66359 -63 -- 729 0.00
08/16/2015 522.00 65977 -382 -- 1304 0.00
08/17/2015 523.76 67359 1382 -- 1429 0.00
08/18/2015 523.89 67462 103 -- 778 0.00
08/19/2015 522.64 66477 -985 -- 229 0.00
08/20/2015 521.51 65596 -881 -- -444 0.00
08/21/2015 520.09 64502 -1094 -- 157 0.00
08/22/2015 519.23 63846 -656 -- 354 0.00
08/23/2015 518.28 63127 -719 -- 320 0.00
08/24/2015 519.68 64188 1061 -- 1204 0.00
08/25/2015 520.92 65139 951 -- 1150 0.00
08/26/2015 521.96 65946 -- -- 1070 0.00
08/27/2015 523.91 67478 1532 -- 1430 0.00
08/28/2015 524.92 68282 804 -- 1065 0.00
08/29/2015 524.00 67549 -733 -- 272 0.00
08/30/2015 523.38 67059 -490 -- 378 0.00
08/31/2015 523.60 67232 173 -- 87 0.00
09/01/2015 522.92 66696 -536 -- 353 0.00
09/02/2015 522.00 65977 -719 -- 251 0.00
09/03/2015 -- -- -- -- -- --

Later | Latest

Warning! This data is preliminary and subject to revision.

Show ENG Map | Plot ENG Data | 1 Month ENG Data | Real-Time ENG Data | ENG Info